sensor_id;sensor_type;location;lat;lon;timestamp;P1;durP1;ratioP1;P2;durP2;ratioP2
52354;SDS011;38286;51.156;17.038;2023-03-29T00:00:31;28.67;;;12.35;;
52354;SDS011;38286;51.156;17.038;2023-03-29T00:03:14;29.95;;;12.95;;
52354;SDS011;38286;51.156;17.038;2023-03-29T00:05:40;29.73;;;12.18;;
52354;SDS011;38286;51.156;17.038;2023-03-29T00:08:07;26.98;;;11.88;;
52354;SDS011;38286;51.156;17.038;2023-03-29T00:10:33;35.47;;;12.27;;
52354;SDS011;38286;51.156;17.038;2023-03-29T00:12:59;28.88;;;11.93;;
52354;SDS011;38286;51.156;17.038;2023-03-29T00:15:26;38.72;;;13.32;;
52354;SDS011;38286;51.156;17.038;2023-03-29T00:17:52;39.47;;;16.55;;
52354;SDS011;38286;51.156;17.038;2023-03-29T00:20:18;44.05;;;16.92;;
52354;SDS011;38286;51.156;17.038;2023-03-29T00:22:44;46.03;;;17.02;;
52354;SDS011;38286;51.156;17.038;2023-03-29T00:25:11;44.67;;;16.55;;
52354;SDS011;38286;51.156;17.038;2023-03-29T00:27:38;55.70;;;19.67;;
52354;SDS011;38286;51.156;17.038;2023-03-29T00:30:05;51.28;;;18.50;;
52354;SDS011;38286;51.156;17.038;2023-03-29T00:32:32;52.50;;;17.95;;
52354;SDS011;38286;51.156;17.038;2023-03-29T00:34:59;51.83;;;19.25;;
52354;SDS011;38286;51.156;17.038;2023-03-29T00:37:26;51.92;;;19.05;;
52354;SDS011;38286;51.156;17.038;2023-03-29T00:39:54;52.42;;;18.65;;
52354;SDS011;38286;51.156;17.038;2023-03-29T00:42:21;53.35;;;17.38;;
52354;SDS011;38286;51.156;17.038;2023-03-29T00:44:55;54.08;;;19.83;;
52354;SDS011;38286;51.156;17.038;2023-03-29T00:49:51;77.78;;;24.02;;
52354;SDS011;38286;51.156;17.038;2023-03-29T00:52:18;73.30;;;23.23;;
52354;SDS011;38286;51.156;17.038;2023-03-29T00:54:46;65.53;;;23.85;;
52354;SDS011;38286;51.156;17.038;2023-03-29T00:57:15;72.15;;;25.17;;
52354;SDS011;38286;51.156;17.038;2023-03-29T00:59:42;65.57;;;22.10;;
52354;SDS011;38286;51.156;17.038;2023-03-29T01:02:08;67.57;;;21.25;;
52354;SDS011;38286;51.156;17.038;2023-03-29T01:04:36;66.43;;;21.90;;
52354;SDS011;38286;51.156;17.038;2023-03-29T01:07:07;73.25;;;22.17;;
52354;SDS011;38286;51.156;17.038;2023-03-29T01:09:38;56.08;;;21.15;;
52354;SDS011;38286;51.156;17.038;2023-03-29T01:12:10;58.97;;;20.38;;
52354;SDS011;38286;51.156;17.038;2023-03-29T01:14:39;62.63;;;20.05;;
52354;SDS011;38286;51.156;17.038;2023-03-29T01:17:07;66.75;;;21.48;;
52354;SDS011;38286;51.156;17.038;2023-03-29T01:19:35;58.65;;;20.52;;
52354;SDS011;38286;51.156;17.038;2023-03-29T01:22:14;69.13;;;24.23;;
52354;SDS011;38286;51.156;17.038;2023-03-29T01:29:59;73.13;;;25.17;;
52354;SDS011;38286;51.156;17.038;2023-03-29T01:32:37;79.28;;;25.52;;
52354;SDS011;38286;51.156;17.038;2023-03-29T01:35:12;71.50;;;24.90;;
52354;SDS011;38286;51.156;17.038;2023-03-29T01:37:51;74.93;;;25.83;;
52354;SDS011;38286;51.156;17.038;2023-03-29T01:40:23;75.35;;;25.33;;
52354;SDS011;38286;51.156;17.038;2023-03-29T01:42:54;67.50;;;22.92;;
52354;SDS011;38286;51.156;17.038;2023-03-29T01:45:34;63.90;;;22.35;;
52354;SDS011;38286;51.156;17.038;2023-03-29T01:48:19;63.95;;;21.38;;
52354;SDS011;38286;51.156;17.038;2023-03-29T01:50:47;56.60;;;20.75;;
52354;SDS011;38286;51.156;17.038;2023-03-29T01:53:21;62.65;;;22.58;;
52354;SDS011;38286;51.156;17.038;2023-03-29T01:55:52;56.85;;;21.83;;
52354;SDS011;38286;51.156;17.038;2023-03-29T01:58:24;58.92;;;22.50;;
52354;SDS011;38286;51.156;17.038;2023-03-29T02:00:54;71.88;;;23.60;;
52354;SDS011;38286;51.156;17.038;2023-03-29T02:03:21;57.55;;;21.67;;
52354;SDS011;38286;51.156;17.038;2023-03-29T02:05:49;72.85;;;24.48;;
52354;SDS011;38286;51.156;17.038;2023-03-29T02:08:15;87.90;;;26.38;;
52354;SDS011;38286;51.156;17.038;2023-03-29T02:10:42;98.85;;;31.70;;
52354;SDS011;38286;51.156;17.038;2023-03-29T02:13:08;95.38;;;29.08;;
52354;SDS011;38286;51.156;17.038;2023-03-29T02:15:34;95.30;;;31.02;;
52354;SDS011;38286;51.156;17.038;2023-03-29T02:18:00;87.40;;;30.85;;
52354;SDS011;38286;51.156;17.038;2023-03-29T02:23:00;76.75;;;26.70;;
52354;SDS011;38286;51.156;17.038;2023-03-29T02:25:43;88.53;;;28.23;;
52354;SDS011;38286;51.156;17.038;2023-03-29T02:28:10;78.05;;;27.20;;
52354;SDS011;38286;51.156;17.038;2023-03-29T02:33:48;86.93;;;28.75;;
52354;SDS011;38286;51.156;17.038;2023-03-29T02:36:00;77.63;;;26.13;;
52354;SDS011;38286;51.156;17.038;2023-03-29T02:38:34;84.72;;;26.67;;
52354;SDS011;38286;51.156;17.038;2023-03-29T02:41:02;79.78;;;25.55;;
52354;SDS011;38286;51.156;17.038;2023-03-29T02:43:28;92.70;;;28.45;;
52354;SDS011;38286;51.156;17.038;2023-03-29T02:45:54;80.00;;;28.05;;
52354;SDS011;38286;51.156;17.038;2023-03-29T02:48:22;88.80;;;28.50;;
52354;SDS011;38286;51.156;17.038;2023-03-29T02:50:50;73.75;;;23.88;;
52354;SDS011;38286;51.156;17.038;2023-03-29T02:53:20;68.30;;;24.35;;
52354;SDS011;38286;51.156;17.038;2023-03-29T02:55:48;49.15;;;20.98;;
52354;SDS011;38286;51.156;17.038;2023-03-29T02:58:16;52.88;;;21.30;;
52354;SDS011;38286;51.156;17.038;2023-03-29T03:00:45;51.00;;;21.13;;
52354;SDS011;38286;51.156;17.038;2023-03-29T03:03:13;47.75;;;20.88;;
52354;SDS011;38286;51.156;17.038;2023-03-29T03:05:42;53.33;;;19.92;;
52354;SDS011;38286;51.156;17.038;2023-03-29T03:08:08;54.15;;;19.75;;
52354;SDS011;38286;51.156;17.038;2023-03-29T03:10:34;50.10;;;19.65;;
52354;SDS011;38286;51.156;17.038;2023-03-29T03:13:00;44.83;;;19.45;;
52354;SDS011;38286;51.156;17.038;2023-03-29T03:15:27;50.25;;;20.90;;
52354;SDS011;38286;51.156;17.038;2023-03-29T03:17:53;55.35;;;21.50;;
52354;SDS011;38286;51.156;17.038;2023-03-29T03:20:19;46.78;;;20.48;;
52354;SDS011;38286;51.156;17.038;2023-03-29T03:22:47;50.38;;;20.90;;
52354;SDS011;38286;51.156;17.038;2023-03-29T03:25:14;53.47;;;20.75;;
52354;SDS011;38286;51.156;17.038;2023-03-29T03:27:41;51.40;;;20.45;;
52354;SDS011;38286;51.156;17.038;2023-03-29T03:30:08;64.55;;;24.90;;
52354;SDS011;38286;51.156;17.038;2023-03-29T03:32:35;87.68;;;32.63;;
52354;SDS011;38286;51.156;17.038;2023-03-29T03:35:02;81.75;;;28.33;;
52354;SDS011;38286;51.156;17.038;2023-03-29T03:37:30;65.05;;;26.45;;
52354;SDS011;38286;51.156;17.038;2023-03-29T03:39:56;58.42;;;23.02;;
52354;SDS011;38286;51.156;17.038;2023-03-29T03:42:41;53.22;;;21.20;;
52354;SDS011;38286;51.156;17.038;2023-03-29T03:45:08;49.95;;;19.52;;
52354;SDS011;38286;51.156;17.038;2023-03-29T03:47:35;49.78;;;19.60;;
52354;SDS011;38286;51.156;17.038;2023-03-29T03:50:04;44.17;;;17.15;;
52354;SDS011;38286;51.156;17.038;2023-03-29T03:52:31;53.42;;;20.58;;
52354;SDS011;38286;51.156;17.038;2023-03-29T03:54:57;50.80;;;20.27;;
52354;SDS011;38286;51.156;17.038;2023-03-29T03:57:23;48.78;;;19.98;;
52354;SDS011;38286;51.156;17.038;2023-03-29T03:59:49;44.72;;;18.08;;
52354;SDS011;38286;51.156;17.038;2023-03-29T04:02:15;43.97;;;18.60;;
52354;SDS011;38286;51.156;17.038;2023-03-29T04:04:42;51.20;;;20.73;;
52354;SDS011;38286;51.156;17.038;2023-03-29T04:07:08;49.63;;;20.90;;
52354;SDS011;38286;51.156;17.038;2023-03-29T04:09:37;43.95;;;20.45;;
52354;SDS011;38286;51.156;17.038;2023-03-29T04:12:03;45.92;;;20.05;;
52354;SDS011;38286;51.156;17.038;2023-03-29T04:14:30;48.00;;;19.73;;
52354;SDS011;38286;51.156;17.038;2023-03-29T04:16:56;44.88;;;19.75;;
52354;SDS011;38286;51.156;17.038;2023-03-29T04:19:22;47.97;;;19.52;;
52354;SDS011;38286;51.156;17.038;2023-03-29T04:21:48;46.30;;;19.95;;
52354;SDS011;38286;51.156;17.038;2023-03-29T04:24:15;46.63;;;20.42;;
52354;SDS011;38286;51.156;17.038;2023-03-29T04:26:42;49.22;;;20.55;;
52354;SDS011;38286;51.156;17.038;2023-03-29T04:29:08;46.13;;;18.92;;
52354;SDS011;38286;51.156;17.038;2023-03-29T04:31:34;51.13;;;20.40;;
52354;SDS011;38286;51.156;17.038;2023-03-29T04:34:00;47.92;;;19.13;;
52354;SDS011;38286;51.156;17.038;2023-03-29T04:36:26;45.05;;;19.67;;
52354;SDS011;38286;51.156;17.038;2023-03-29T04:38:52;46.67;;;19.95;;
52354;SDS011;38286;51.156;17.038;2023-03-29T04:41:18;48.45;;;20.15;;
52354;SDS011;38286;51.156;17.038;2023-03-29T04:43:45;41.90;;;20.13;;
52354;SDS011;38286;51.156;17.038;2023-03-29T04:46:12;40.90;;;18.65;;
52354;SDS011;38286;51.156;17.038;2023-03-29T04:48:39;40.92;;;18.48;;
52354;SDS011;38286;51.156;17.038;2023-03-29T04:51:05;42.97;;;18.40;;
52354;SDS011;38286;51.156;17.038;2023-03-29T04:53:31;42.72;;;18.98;;
52354;SDS011;38286;51.156;17.038;2023-03-29T04:55:57;47.50;;;20.95;;
52354;SDS011;38286;51.156;17.038;2023-03-29T04:58:24;42.58;;;19.45;;
52354;SDS011;38286;51.156;17.038;2023-03-29T05:00:54;41.33;;;18.33;;
52354;SDS011;38286;51.156;17.038;2023-03-29T05:03:21;43.33;;;19.45;;
52354;SDS011;38286;51.156;17.038;2023-03-29T05:05:47;43.22;;;19.67;;
52354;SDS011;38286;51.156;17.038;2023-03-29T05:08:13;46.72;;;19.33;;
52354;SDS011;38286;51.156;17.038;2023-03-29T05:10:42;42.05;;;19.00;;
52354;SDS011;38286;51.156;17.038;2023-03-29T05:13:09;43.42;;;18.88;;
52354;SDS011;38286;51.156;17.038;2023-03-29T05:15:35;36.97;;;18.83;;
52354;SDS011;38286;51.156;17.038;2023-03-29T05:18:01;41.05;;;18.65;;
52354;SDS011;38286;51.156;17.038;2023-03-29T05:20:28;45.47;;;19.88;;
52354;SDS011;38286;51.156;17.038;2023-03-29T05:22:54;46.88;;;20.83;;
52354;SDS011;38286;51.156;17.038;2023-03-29T05:25:21;37.75;;;18.95;;
52354;SDS011;38286;51.156;17.038;2023-03-29T05:27:47;49.10;;;22.92;;
52354;SDS011;38286;51.156;17.038;2023-03-29T05:30:14;51.40;;;24.20;;
52354;SDS011;38286;51.156;17.038;2023-03-29T05:32:41;55.25;;;26.15;;
52354;SDS011;38286;51.156;17.038;2023-03-29T05:35:07;64.18;;;26.65;;
52354;SDS011;38286;51.156;17.038;2023-03-29T05:37:35;50.17;;;24.10;;
52354;SDS011;38286;51.156;17.038;2023-03-29T05:40:01;54.65;;;24.88;;
52354;SDS011;38286;51.156;17.038;2023-03-29T05:42:35;52.63;;;24.23;;
52354;SDS011;38286;51.156;17.038;2023-03-29T05:45:02;43.30;;;20.92;;
52354;SDS011;38286;51.156;17.038;2023-03-29T05:47:29;44.75;;;20.00;;
52354;SDS011;38286;51.156;17.038;2023-03-29T05:49:55;46.05;;;20.25;;
52354;SDS011;38286;51.156;17.038;2023-03-29T05:52:21;41.95;;;18.67;;
52354;SDS011;38286;51.156;17.038;2023-03-29T05:54:48;42.45;;;17.90;;
52354;SDS011;38286;51.156;17.038;2023-03-29T05:57:15;35.90;;;18.33;;
52354;SDS011;38286;51.156;17.038;2023-03-29T05:59:41;41.80;;;16.85;;
52354;SDS011;38286;51.156;17.038;2023-03-29T06:02:08;37.88;;;16.30;;
52354;SDS011;38286;51.156;17.038;2023-03-29T06:04:35;35.22;;;15.48;;
52354;SDS011;38286;51.156;17.038;2023-03-29T06:07:01;30.20;;;14.65;;
52354;SDS011;38286;51.156;17.038;2023-03-29T06:09:29;37.58;;;15.20;;
52354;SDS011;38286;51.156;17.038;2023-03-29T06:11:56;37.90;;;16.65;;
52354;SDS011;38286;51.156;17.038;2023-03-29T06:14:23;29.92;;;12.88;;
52354;SDS011;38286;51.156;17.038;2023-03-29T06:16:49;34.63;;;14.35;;
52354;SDS011;38286;51.156;17.038;2023-03-29T06:19:15;24.88;;;12.10;;
52354;SDS011;38286;51.156;17.038;2023-03-29T06:21:43;26.33;;;12.10;;
52354;SDS011;38286;51.156;17.038;2023-03-29T06:24:09;30.35;;;12.70;;
52354;SDS011;38286;51.156;17.038;2023-03-29T06:26:35;28.55;;;11.82;;
52354;SDS011;38286;51.156;17.038;2023-03-29T06:29:01;26.63;;;11.02;;
52354;SDS011;38286;51.156;17.038;2023-03-29T06:31:28;24.83;;;11.23;;
52354;SDS011;38286;51.156;17.038;2023-03-29T06:33:55;30.50;;;11.77;;
52354;SDS011;38286;51.156;17.038;2023-03-29T06:36:23;24.08;;;10.80;;
52354;SDS011;38286;51.156;17.038;2023-03-29T06:38:48;19.95;;;9.82;;
52354;SDS011;38286;51.156;17.038;2023-03-29T06:41:14;21.52;;;10.93;;
52354;SDS011;38286;51.156;17.038;2023-03-29T06:43:40;19.00;;;9.57;;
52354;SDS011;38286;51.156;17.038;2023-03-29T06:46:07;19.13;;;9.65;;
52354;SDS011;38286;51.156;17.038;2023-03-29T06:48:39;22.90;;;8.95;;
52354;SDS011;38286;51.156;17.038;2023-03-29T06:51:06;20.80;;;8.90;;
52354;SDS011;38286;51.156;17.038;2023-03-29T06:53:32;19.60;;;9.35;;
52354;SDS011;38286;51.156;17.038;2023-03-29T06:55:58;16.20;;;8.73;;
52354;SDS011;38286;51.156;17.038;2023-03-29T06:58:29;17.92;;;8.57;;
52354;SDS011;38286;51.156;17.038;2023-03-29T07:00:58;15.40;;;7.80;;
52354;SDS011;38286;51.156;17.038;2023-03-29T07:03:26;17.63;;;8.40;;
52354;SDS011;38286;51.156;17.038;2023-03-29T07:05:52;17.48;;;7.75;;
52354;SDS011;38286;51.156;17.038;2023-03-29T07:08:25;22.00;;;8.25;;
52354;SDS011;38286;51.156;17.038;2023-03-29T07:10:55;16.45;;;8.15;;
52354;SDS011;38286;51.156;17.038;2023-03-29T07:13:23;19.83;;;8.07;;
52354;SDS011;38286;51.156;17.038;2023-03-29T07:15:50;14.70;;;7.10;;
52354;SDS011;38286;51.156;17.038;2023-03-29T07:18:16;19.02;;;7.60;;
52354;SDS011;38286;51.156;17.038;2023-03-29T07:20:43;26.85;;;8.10;;
52354;SDS011;38286;51.156;17.038;2023-03-29T07:23:09;17.52;;;8.20;;
52354;SDS011;38286;51.156;17.038;2023-03-29T07:25:36;14.27;;;7.18;;
52354;SDS011;38286;51.156;17.038;2023-03-29T07:28:03;18.27;;;8.10;;
52354;SDS011;38286;51.156;17.038;2023-03-29T07:30:29;20.58;;;8.60;;
52354;SDS011;38286;51.156;17.038;2023-03-29T07:32:56;19.65;;;7.95;;
52354;SDS011;38286;51.156;17.038;2023-03-29T07:35:23;17.52;;;7.28;;
52354;SDS011;38286;51.156;17.038;2023-03-29T07:37:51;17.42;;;7.45;;
52354;SDS011;38286;51.156;17.038;2023-03-29T07:40:17;14.15;;;7.20;;
52354;SDS011;38286;51.156;17.038;2023-03-29T07:42:47;12.25;;;6.07;;
52354;SDS011;38286;51.156;17.038;2023-03-29T07:45:14;13.20;;;6.10;;
52354;SDS011;38286;51.156;17.038;2023-03-29T07:47:44;18.50;;;6.30;;
52354;SDS011;38286;51.156;17.038;2023-03-29T07:50:12;13.02;;;6.00;;
52354;SDS011;38286;51.156;17.038;2023-03-29T07:52:39;14.00;;;5.30;;
52354;SDS011;38286;51.156;17.038;2023-03-29T07:55:06;12.15;;;5.97;;
52354;SDS011;38286;51.156;17.038;2023-03-29T07:57:33;10.20;;;5.10;;
52354;SDS011;38286;51.156;17.038;2023-03-29T07:59:59;12.68;;;5.18;;
52354;SDS011;38286;51.156;17.038;2023-03-29T08:02:35;9.45;;;4.90;;
52354;SDS011;38286;51.156;17.038;2023-03-29T08:05:01;11.85;;;4.88;;
52354;SDS011;38286;51.156;17.038;2023-03-29T08:07:27;8.68;;;4.28;;
52354;SDS011;38286;51.156;17.038;2023-03-29T08:09:53;10.63;;;5.55;;
52354;SDS011;38286;51.156;17.038;2023-03-29T08:12:19;8.43;;;4.57;;
52354;SDS011;38286;51.156;17.038;2023-03-29T08:14:45;11.60;;;5.13;;
52354;SDS011;38286;51.156;17.038;2023-03-29T08:17:12;11.30;;;4.90;;
52354;SDS011;38286;51.156;17.038;2023-03-29T08:19:38;16.25;;;7.10;;
52354;SDS011;38286;51.156;17.038;2023-03-29T08:22:04;11.60;;;5.22;;
52354;SDS011;38286;51.156;17.038;2023-03-29T08:24:30;12.00;;;4.93;;
52354;SDS011;38286;51.156;17.038;2023-03-29T08:26:56;12.30;;;5.30;;
52354;SDS011;38286;51.156;17.038;2023-03-29T08:29:22;8.65;;;4.63;;
52354;SDS011;38286;51.156;17.038;2023-03-29T08:31:48;9.60;;;4.70;;
52354;SDS011;38286;51.156;17.038;2023-03-29T08:34:14;12.60;;;5.05;;
52354;SDS011;38286;51.156;17.038;2023-03-29T08:36:40;14.50;;;4.70;;
52354;SDS011;38286;51.156;17.038;2023-03-29T08:39:07;9.55;;;4.50;;
52354;SDS011;38286;51.156;17.038;2023-03-29T08:41:44;11.95;;;4.65;;
52354;SDS011;38286;51.156;17.038;2023-03-29T08:44:26;8.77;;;4.47;;
52354;SDS011;38286;51.156;17.038;2023-03-29T08:47:12;8.30;;;4.35;;
52354;SDS011;38286;51.156;17.038;2023-03-29T08:49:58;9.55;;;4.13;;
52354;SDS011;38286;51.156;17.038;2023-03-29T08:54:56;8.85;;;3.95;;
52354;SDS011;38286;51.156;17.038;2023-03-29T09:00:15;7.88;;;3.40;;
52354;SDS011;38286;51.156;17.038;2023-03-29T09:02:44;9.70;;;4.13;;
52354;SDS011;38286;51.156;17.038;2023-03-29T09:05:19;5.45;;;3.25;;
52354;SDS011;38286;51.156;17.038;2023-03-29T09:07:47;7.30;;;3.85;;
52354;SDS011;38286;51.156;17.038;2023-03-29T09:10:14;7.47;;;3.75;;
52354;SDS011;38286;51.156;17.038;2023-03-29T09:12:57;10.80;;;3.88;;
52354;SDS011;38286;51.156;17.038;2023-03-29T09:15:42;7.75;;;4.05;;
52354;SDS011;38286;51.156;17.038;2023-03-29T09:18:17;7.50;;;3.38;;
52354;SDS011;38286;51.156;17.038;2023-03-29T09:20:59;10.38;;;4.03;;
52354;SDS011;38286;51.156;17.038;2023-03-29T09:26:52;5.38;;;3.15;;
52354;SDS011;38286;51.156;17.038;2023-03-29T09:29:13;7.18;;;3.30;;
52354;SDS011;38286;51.156;17.038;2023-03-29T09:31:42;6.82;;;3.42;;
52354;SDS011;38286;51.156;17.038;2023-03-29T09:36:52;10.43;;;5.20;;
52354;SDS011;38286;51.156;17.038;2023-03-29T09:39:20;8.80;;;4.15;;
52354;SDS011;38286;51.156;17.038;2023-03-29T09:42:06;10.93;;;4.22;;
52354;SDS011;38286;51.156;17.038;2023-03-29T09:44:37;8.25;;;3.15;;
52354;SDS011;38286;51.156;17.038;2023-03-29T09:47:28;6.80;;;4.13;;
52354;SDS011;38286;51.156;17.038;2023-03-29T09:50:21;10.43;;;4.25;;
52354;SDS011;38286;51.156;17.038;2023-03-29T09:52:54;9.43;;;4.10;;
52354;SDS011;38286;51.156;17.038;2023-03-29T09:55:21;8.05;;;3.78;;
52354;SDS011;38286;51.156;17.038;2023-03-29T09:57:52;8.35;;;3.83;;
52354;SDS011;38286;51.156;17.038;2023-03-29T10:00:18;8.60;;;4.07;;
52354;SDS011;38286;51.156;17.038;2023-03-29T10:02:52;7.65;;;3.65;;
52354;SDS011;38286;51.156;17.038;2023-03-29T10:05:19;6.47;;;3.60;;
52354;SDS011;38286;51.156;17.038;2023-03-29T10:07:47;10.52;;;4.07;;
52354;SDS011;38286;51.156;17.038;2023-03-29T10:10:20;8.13;;;3.75;;
52354;SDS011;38286;51.156;17.038;2023-03-29T10:13:17;8.60;;;4.43;;
52354;SDS011;38286;51.156;17.038;2023-03-29T10:16:06;7.45;;;3.58;;
52354;SDS011;38286;51.156;17.038;2023-03-29T10:18:42;8.32;;;4.03;;
52354;SDS011;38286;51.156;17.038;2023-03-29T10:21:10;8.43;;;4.35;;
52354;SDS011;38286;51.156;17.038;2023-03-29T10:23:40;8.00;;;4.50;;
52354;SDS011;38286;51.156;17.038;2023-03-29T10:26:09;9.40;;;3.90;;
52354;SDS011;38286;51.156;17.038;2023-03-29T10:28:49;7.15;;;3.75;;
52354;SDS011;38286;51.156;17.038;2023-03-29T10:31:17;9.15;;;4.25;;
52354;SDS011;38286;51.156;17.038;2023-03-29T10:33:49;7.72;;;3.90;;
52354;SDS011;38286;51.156;17.038;2023-03-29T10:36:16;11.23;;;3.67;;
52354;SDS011;38286;51.156;17.038;2023-03-29T10:38:42;7.72;;;3.20;;
52354;SDS011;38286;51.156;17.038;2023-03-29T10:41:09;5.90;;;2.92;;
52354;SDS011;38286;51.156;17.038;2023-03-29T10:43:46;7.68;;;3.88;;
52354;SDS011;38286;51.156;17.038;2023-03-29T10:48:54;10.00;;;3.92;;
52354;SDS011;38286;51.156;17.038;2023-03-29T10:51:30;8.93;;;4.03;;
52354;SDS011;38286;51.156;17.038;2023-03-29T10:53:57;7.50;;;3.40;;
52354;SDS011;38286;51.156;17.038;2023-03-29T10:59:02;7.95;;;3.25;;
52354;SDS011;38286;51.156;17.038;2023-03-29T11:01:39;4.97;;;3.50;;
52354;SDS011;38286;51.156;17.038;2023-03-29T11:09:45;8.55;;;3.22;;
52354;SDS011;38286;51.156;17.038;2023-03-29T11:12:33;7.82;;;3.70;;
52354;SDS011;38286;51.156;17.038;2023-03-29T11:20:23;6.13;;;3.15;;
52354;SDS011;38286;51.156;17.038;2023-03-29T11:22:53;7.85;;;3.35;;
52354;SDS011;38286;51.156;17.038;2023-03-29T11:25:31;7.82;;;3.00;;
52354;SDS011;38286;51.156;17.038;2023-03-29T11:28:10;11.35;;;3.58;;
52354;SDS011;38286;51.156;17.038;2023-03-29T11:30:44;9.50;;;3.77;;
52354;SDS011;38286;51.156;17.038;2023-03-29T11:35:53;10.05;;;3.25;;
52354;SDS011;38286;51.156;17.038;2023-03-29T11:38:41;8.43;;;3.50;;
52354;SDS011;38286;51.156;17.038;2023-03-29T11:41:23;8.20;;;3.70;;
52354;SDS011;38286;51.156;17.038;2023-03-29T11:43:59;6.55;;;3.42;;
52354;SDS011;38286;51.156;17.038;2023-03-29T11:46:48;7.22;;;3.75;;
52354;SDS011;38286;51.156;17.038;2023-03-29T11:49:33;7.65;;;3.75;;
52354;SDS011;38286;51.156;17.038;2023-03-29T11:52:15;8.68;;;4.07;;
52354;SDS011;38286;51.156;17.038;2023-03-29T11:54:51;8.60;;;4.20;;
52354;SDS011;38286;51.156;17.038;2023-03-29T11:57:30;9.57;;;4.20;;
52354;SDS011;38286;51.156;17.038;2023-03-29T12:00:03;6.57;;;3.67;;
52354;SDS011;38286;51.156;17.038;2023-03-29T12:05:05;13.07;;;4.43;;
52354;SDS011;38286;51.156;17.038;2023-03-29T12:07:47;8.88;;;3.45;;
52354;SDS011;38286;51.156;17.038;2023-03-29T12:10:42;16.10;;;5.57;;
52354;SDS011;38286;51.156;17.038;2023-03-29T12:13:14;13.80;;;4.50;;
52354;SDS011;38286;51.156;17.038;2023-03-29T12:15:55;15.35;;;4.50;;
52354;SDS011;38286;51.156;17.038;2023-03-29T12:18:26;6.95;;;3.95;;
52354;SDS011;38286;51.156;17.038;2023-03-29T12:20:57;8.68;;;3.55;;
52354;SDS011;38286;51.156;17.038;2023-03-29T12:23:27;4.78;;;3.30;;
52354;SDS011;38286;51.156;17.038;2023-03-29T12:26:20;4.95;;;3.47;;
52354;SDS011;38286;51.156;17.038;2023-03-29T12:34:49;5.88;;;2.78;;
52354;SDS011;38286;51.156;17.038;2023-03-29T12:40:15;5.03;;;2.60;;
52354;SDS011;38286;51.156;17.038;2023-03-29T12:42:43;5.90;;;2.80;;
52354;SDS011;38286;51.156;17.038;2023-03-29T12:45:26;5.28;;;2.80;;
52354;SDS011;38286;51.156;17.038;2023-03-29T12:47:55;4.63;;;2.72;;
52354;SDS011;38286;51.156;17.038;2023-03-29T12:50:25;6.20;;;3.55;;
52354;SDS011;38286;51.156;17.038;2023-03-29T12:58:36;3.03;;;2.40;;
52354;SDS011;38286;51.156;17.038;2023-03-29T13:01:08;5.55;;;3.10;;
52354;SDS011;38286;51.156;17.038;2023-03-29T13:04:32;5.78;;;2.80;;
52354;SDS011;38286;51.156;17.038;2023-03-29T13:09:21;4.65;;;2.72;;
52354;SDS011;38286;51.156;17.038;2023-03-29T13:11:55;4.80;;;2.50;;
52354;SDS011;38286;51.156;17.038;2023-03-29T13:14:23;7.05;;;3.20;;
52354;SDS011;38286;51.156;17.038;2023-03-29T13:16:51;5.50;;;2.95;;
52354;SDS011;38286;51.156;17.038;2023-03-29T13:22:31;5.75;;;3.22;;
52354;SDS011;38286;51.156;17.038;2023-03-29T13:25:25;4.88;;;2.75;;
52354;SDS011;38286;51.156;17.038;2023-03-29T13:30:54;3.33;;;2.65;;
52354;SDS011;38286;51.156;17.038;2023-03-29T13:36:39;5.47;;;2.65;;
52354;SDS011;38286;51.156;17.038;2023-03-29T13:39:19;5.18;;;3.10;;
52354;SDS011;38286;51.156;17.038;2023-03-29T13:41:48;7.50;;;3.20;;
52354;SDS011;38286;51.156;17.038;2023-03-29T13:44:22;6.30;;;3.03;;
52354;SDS011;38286;51.156;17.038;2023-03-29T13:47:03;7.20;;;3.03;;
52354;SDS011;38286;51.156;17.038;2023-03-29T13:49:37;5.60;;;3.30;;
52354;SDS011;38286;51.156;17.038;2023-03-29T13:52:13;4.85;;;3.38;;
52354;SDS011;38286;51.156;17.038;2023-03-29T13:57:34;5.15;;;2.63;;
52354;SDS011;38286;51.156;17.038;2023-03-29T14:00:18;4.72;;;2.72;;
52354;SDS011;38286;51.156;17.038;2023-03-29T14:02:51;4.55;;;2.47;;
52354;SDS011;38286;51.156;17.038;2023-03-29T14:05:31;4.18;;;2.42;;
52354;SDS011;38286;51.156;17.038;2023-03-29T14:08:08;7.28;;;2.90;;
52354;SDS011;38286;51.156;17.038;2023-03-29T14:10:40;3.67;;;2.35;;
52354;SDS011;38286;51.156;17.038;2023-03-29T14:13:14;5.68;;;2.60;;
52354;SDS011;38286;51.156;17.038;2023-03-29T14:15:46;5.50;;;2.90;;
52354;SDS011;38286;51.156;17.038;2023-03-29T14:18:15;5.30;;;2.90;;
52354;SDS011;38286;51.156;17.038;2023-03-29T14:20:44;7.10;;;3.20;;
52354;SDS011;38286;51.156;17.038;2023-03-29T14:23:11;8.93;;;3.15;;
52354;SDS011;38286;51.156;17.038;2023-03-29T14:25:43;3.65;;;2.22;;
52354;SDS011;38286;51.156;17.038;2023-03-29T14:28:26;12.15;;;2.85;;
52354;SDS011;38286;51.156;17.038;2023-03-29T14:30:54;5.97;;;2.92;;
52354;SDS011;38286;51.156;17.038;2023-03-29T14:33:24;5.72;;;2.92;;
52354;SDS011;38286;51.156;17.038;2023-03-29T14:35:54;5.07;;;2.72;;
52354;SDS011;38286;51.156;17.038;2023-03-29T14:38:22;5.30;;;2.20;;
52354;SDS011;38286;51.156;17.038;2023-03-29T14:40:49;6.13;;;2.78;;
52354;SDS011;38286;51.156;17.038;2023-03-29T14:43:19;5.00;;;2.47;;
52354;SDS011;38286;51.156;17.038;2023-03-29T14:45:47;6.20;;;2.58;;
52354;SDS011;38286;51.156;17.038;2023-03-29T14:48:13;5.57;;;2.60;;
52354;SDS011;38286;51.156;17.038;2023-03-29T14:50:40;5.13;;;2.80;;
52354;SDS011;38286;51.156;17.038;2023-03-29T14:53:07;4.57;;;3.00;;
52354;SDS011;38286;51.156;17.038;2023-03-29T14:55:41;5.30;;;2.63;;
52354;SDS011;38286;51.156;17.038;2023-03-29T14:58:13;5.50;;;3.10;;
52354;SDS011;38286;51.156;17.038;2023-03-29T15:00:44;4.95;;;2.70;;
52354;SDS011;38286;51.156;17.038;2023-03-29T15:03:14;6.32;;;3.08;;
52354;SDS011;38286;51.156;17.038;2023-03-29T15:05:42;5.22;;;2.60;;
52354;SDS011;38286;51.156;17.038;2023-03-29T15:08:16;4.80;;;2.58;;
52354;SDS011;38286;51.156;17.038;2023-03-29T15:13:13;4.90;;;2.60;;
52354;SDS011;38286;51.156;17.038;2023-03-29T15:15:42;6.22;;;2.50;;
52354;SDS011;38286;51.156;17.038;2023-03-29T15:18:08;6.40;;;2.72;;
52354;SDS011;38286;51.156;17.038;2023-03-29T15:20:37;4.55;;;2.63;;
52354;SDS011;38286;51.156;17.038;2023-03-29T15:23:16;8.73;;;3.10;;
52354;SDS011;38286;51.156;17.038;2023-03-29T15:25:47;6.15;;;3.10;;
52354;SDS011;38286;51.156;17.038;2023-03-29T15:28:34;9.18;;;3.13;;
52354;SDS011;38286;51.156;17.038;2023-03-29T15:31:20;4.97;;;3.25;;
52354;SDS011;38286;51.156;17.038;2023-03-29T15:34:00;6.53;;;3.17;;
52354;SDS011;38286;51.156;17.038;2023-03-29T15:36:37;5.03;;;2.90;;
52354;SDS011;38286;51.156;17.038;2023-03-29T15:39:09;4.63;;;2.95;;
52354;SDS011;38286;51.156;17.038;2023-03-29T15:41:40;5.53;;;2.78;;
52354;SDS011;38286;51.156;17.038;2023-03-29T15:44:07;4.22;;;2.60;;
52354;SDS011;38286;51.156;17.038;2023-03-29T15:46:33;6.95;;;2.70;;
52354;SDS011;38286;51.156;17.038;2023-03-29T15:48:59;6.50;;;2.90;;
52354;SDS011;38286;51.156;17.038;2023-03-29T15:51:25;4.60;;;2.80;;
52354;SDS011;38286;51.156;17.038;2023-03-29T15:53:51;6.88;;;3.13;;
52354;SDS011;38286;51.156;17.038;2023-03-29T15:56:17;7.70;;;2.80;;